Terminal Aerodrome Forecast
Issued by NWS Des Moines, IA

Current Version | Previous Version | Text Only | Print | Product List | Glossary On
Versions: 1 2 3 4 5 6 7 8 9 10 11 12 13 14 15 16 17 18 19
000
FTUS43 KDMX 012325
TAFALO
TAF
KALO 012325Z 0200/0224 02007KT 6SM BR VCSH FEW010 SCT020 OVC035
      TEMPO 0200/0202 4SM -SHRA BKN025
     FM020200 36006KT P6SM SCT040 BKN060
     FM021000 02006KT P6SM SCT100
     FM021800 01005KT P6SM BKN050=

USA.gov is the U.S. government's official web portal to all federal, state and local government web resources and services.